Time;durP1;ratioP1;P1;durP2;ratioP2;P2;SDS_P1;SDS_P2;PMS_P1;PMS_P2;Temp;Humidity;BMP_temperature;BMP_pressure;BME280_temperature;BME280_humidity;BME280_pressure;Samples;Min_cycle;Max_cycle;Signal;HPM_P1;HPM_P2
2022/07/15 00:00:10;;;;;;;5.75;1.70;;;19.00;99.90;;;;;;5037510;28;20461;-82
2022/07/15 00:02:37;;;;;;;1.60;1.50;;;18.90;99.90;;;;;;5035804;28;20421;-81
2022/07/15 00:05:05;;;;;;;2.55;1.83;;;18.90;99.90;;;;;;5035568;28;20037;-81
2022/07/15 00:07:31;;;;;;;2.90;2.05;;;18.80;99.90;;;;;;5037162;28;20079;-80
2022/07/15 00:10:14;;;;;;;2.40;1.60;;;18.70;99.90;;;;;;5036526;28;20036;-81
2022/07/15 00:12:52;;;;;;;2.40;1.50;;;18.60;99.90;;;;;;5037514;28;20112;-80
2022/07/15 00:15:19;;;;;;;2.20;1.92;;;18.50;99.90;;;;;;5037233;28;20091;-79
2022/07/15 00:17:45;;;;;;;2.20;2.08;;;18.40;99.90;;;;;;5036892;28;20037;-80
2022/07/15 00:20:11;;;;;;;4.97;2.30;;;18.40;99.90;;;;;;5035646;28;20033;-80
2022/07/15 00:22:38;;;;;;;2.20;1.95;;;18.30;99.90;;;;;;5035537;28;20057;-80
2022/07/15 00:25:04;;;;;;;1.88;1.70;;;18.30;99.90;;;;;;5036450;28;20041;-80
2022/07/15 00:27:30;;;;;;;2.45;2.25;;;18.30;99.90;;;;;;5036502;28;20473;-81
2022/07/15 00:29:56;;;;;;;2.42;2.17;;;18.30;99.90;;;;;;5035952;28;20072;-80
2022/07/15 00:32:21;;;;;;;3.70;2.30;;;18.30;99.90;;;;;;5036636;28;20053;-79
2022/07/15 00:34:47;;;;;;;3.90;2.35;;;18.20;99.90;;;;;;5035667;28;20030;-80
2022/07/15 00:37:13;;;;;;;4.13;2.15;;;18.30;99.90;;;;;;5035393;28;20128;-83
2022/07/15 00:39:39;;;;;;;5.93;2.50;;;18.30;99.90;;;;;;5035773;28;20029;-82
2022/07/15 00:42:05;;;;;;;8.32;3.05;;;18.30;99.90;;;;;;5036726;28;20504;-82
2022/07/15 00:44:31;;;;;;;5.60;2.72;;;18.30;99.90;;;;;;5035070;28;20032;-80
2022/07/15 00:46:56;;;;;;;6.15;2.58;;;18.20;99.90;;;;;;5036420;28;20139;-79
2022/07/15 00:49:22;;;;;;;3.58;3.03;;;18.30;99.90;;;;;;5036280;28;20049;-78
2022/07/15 00:51:51;;;;;;;3.72;2.55;;;18.30;99.90;;;;;;5036299;28;20022;-78
2022/07/15 00:54:22;;;;;;;4.22;2.65;;;18.20;99.90;;;;;;5036289;28;20037;-77
2022/07/15 00:56:53;;;;;;;3.20;2.75;;;18.20;99.90;;;;;;5036340;28;20461;-75
2022/07/15 00:59:24;;;;;;;3.90;3.10;;;18.10;99.90;;;;;;5035732;28;20025;-74
2022/07/15 01:01:52;;;;;;;3.28;2.95;;;18.10;99.90;;;;;;5036105;28;20045;-74
2022/07/15 01:04:19;;;;;;;3.45;2.92;;;18.10;99.90;;;;;;5036007;28;20377;-73
2022/07/15 01:06:46;;;;;;;4.20;2.75;;;18.10;99.90;;;;;;5034735;28;20053;-73
2022/07/15 01:09:11;;;;;;;5.10;3.47;;;18.10;99.90;;;;;;5035731;28;20421;-74
2022/07/15 01:11:37;;;;;;;5.90;3.03;;;18.00;99.90;;;;;;5035902;28;20030;-74
2022/07/15 01:14:04;;;;;;;5.82;3.42;;;17.90;99.90;;;;;;5034553;28;20033;-74
2022/07/15 01:16:30;;;;;;;3.83;3.10;;;17.90;99.90;;;;;;5035813;28;20028;-73
2022/07/15 01:18:55;;;;;;;3.10;2.80;;;17.80;99.90;;;;;;5036053;28;20105;-73
2022/07/15 01:21:22;;;;;;;6.25;3.58;;;17.80;99.90;;;;;;5034467;28;20033;-74
2022/07/15 01:23:48;;;;;;;7.75;3.90;;;17.80;99.90;;;;;;5035736;28;20064;-73
2022/07/15 01:26:14;;;;;;;4.93;3.40;;;17.70;99.90;;;;;;5034335;28;20061;-73
2022/07/15 01:28:41;;;;;;;6.35;5.25;;;17.70;99.90;;;;;;5035599;28;20029;-73
2022/07/15 01:31:06;;;;;;;9.27;7.00;;;17.70;99.90;;;;;;5035552;28;20087;-73
2022/07/15 01:33:33;;;;;;;9.38;5.63;;;17.70;99.90;;;;;;5035190;28;20029;-74
2022/07/15 01:36:00;;;;;;;6.00;4.03;;;17.70;99.90;;;;;;5035462;28;20033;-73
2022/07/15 01:38:27;;;;;;;5.13;4.18;;;17.70;99.90;;;;;;5035330;28;20029;-74
2022/07/15 01:40:53;;;;;;;7.07;4.53;;;17.70;99.90;;;;;;5035067;28;20033;-73
2022/07/15 01:43:18;;;;;;;7.13;4.55;;;17.70;99.90;;;;;;5034003;28;20037;-74
2022/07/15 01:45:45;;;;;;;4.43;4.07;;;17.60;99.90;;;;;;5033888;28;20038;-74
2022/07/15 01:49:21;;;;;;;5.25;4.75;;;17.60;99.90;;;;;;5035206;28;20037;-73
2022/07/15 01:50:59;;;;;;;4.95;4.38;;;17.60;99.90;;;;;;5034862;28;20029;-73
2022/07/15 01:53:26;;;;;;;5.00;4.47;;;17.60;99.90;;;;;;5035427;28;20037;-73
2022/07/15 01:55:52;;;;;;;6.45;4.80;;;17.50;99.90;;;;;;5035124;28;20048;-74
2022/07/15 01:58:17;;;;;;;4.95;4.55;;;17.50;99.90;;;;;;5035318;28;20030;-73
2022/07/15 02:00:43;;;;;;;7.82;5.20;;;17.50;99.90;;;;;;5033426;28;20436;-75
2022/07/15 02:03:09;;;;;;;5.65;5.15;;;17.40;99.90;;;;;;5033675;28;20083;-74
2022/07/15 02:05:35;;;;;;;5.00;4.38;;;17.40;99.90;;;;;;5034558;28;20061;-74
2022/07/15 02:08:01;;;;;;;8.02;6.10;;;17.40;99.90;;;;;;5033601;28;20029;-79
2022/07/15 02:10:39;;;;;;;6.40;5.70;;;17.20;99.90;;;;;;5035084;28;20113;-78
2022/07/15 02:13:09;;;;;;;5.60;5.05;;;17.20;99.90;;;;;;5033959;28;20025;-78
2022/07/15 02:15:35;;;;;;;7.30;6.25;;;17.00;99.90;;;;;;5034110;28;20095;-78
2022/07/15 02:18:01;;;;;;;8.85;6.00;;;16.90;99.90;;;;;;5034718;28;20058;-76
2022/07/15 02:20:27;;;;;;;7.25;6.18;;;16.70;99.90;;;;;;5034610;28;20021;-77
2022/07/15 02:22:53;;;;;;;11.38;6.93;;;16.70;99.90;;;;;;5034558;28;20029;-77
2022/07/15 02:25:19;;;;;;;9.48;7.40;;;16.60;99.90;;;;;;5034472;28;20036;-77
2022/07/15 02:27:45;;;;;;;8.57;7.65;;;16.50;99.90;;;;;;5034493;28;20576;-77
2022/07/15 02:30:11;;;;;;;7.68;6.65;;;16.50;99.90;;;;;;5034508;28;20516;-77
2022/07/15 02:32:37;;;;;;;11.35;7.20;;;16.50;99.90;;;;;;5033081;28;20110;-77
2022/07/15 02:35:03;;;;;;;9.00;6.82;;;16.40;99.90;;;;;;5034647;28;20076;-76
2022/07/15 02:37:29;;;;;;;14.32;8.23;;;16.40;99.90;;;;;;5034050;28;20075;-75
2022/07/15 02:39:54;;;;;;;10.40;7.45;;;16.40;99.90;;;;;;5034041;28;20454;-76
2022/07/15 02:42:20;;;;;;;8.93;8.02;;;16.40;99.90;;;;;;5034174;28;20057;-76
2022/07/15 02:44:46;;;;;;;9.00;7.55;;;16.30;99.90;;;;;;5033834;28;20068;-76
2022/07/15 02:47:11;;;;;;;15.60;8.70;;;16.30;99.90;;;;;;5032886;28;20030;-76
2022/07/15 02:49:37;;;;;;;12.55;7.65;;;16.30;99.90;;;;;;5034127;28;20030;-76
2022/07/15 02:52:03;;;;;;;9.43;8.50;;;16.30;99.90;;;;;;5034105;28;20126;-76
2022/07/15 02:54:28;;;;;;;8.95;7.00;;;16.30;99.90;;;;;;5032487;28;20029;-76
2022/07/15 02:56:54;;;;;;;8.07;7.20;;;16.30;99.90;;;;;;5034044;28;20026;-75
2022/07/15 02:59:20;;;;;;;9.55;6.88;;;16.20;99.90;;;;;;5034256;28;20025;-75
2022/07/15 03:01:45;;;;;;;9.65;7.55;;;16.20;99.90;;;;;;5033883;28;20080;-74
2022/07/15 03:04:11;;;;;;;9.85;7.97;;;16.20;99.90;;;;;;5033183;28;20060;-74
2022/07/15 03:06:36;;;;;;;9.35;7.75;;;16.20;99.90;;;;;;5033635;28;20067;-74
2022/07/15 03:09:02;;;;;;;9.27;8.05;;;16.10;99.90;;;;;;5032859;28;20021;-75
2022/07/15 03:11:29;;;;;;;9.63;8.25;;;16.10;99.90;;;;;;5033144;28;20049;-74
2022/07/15 03:13:54;;;;;;;9.65;7.78;;;16.10;99.90;;;;;;5033779;28;20083;-75
2022/07/15 03:16:20;;;;;;;11.50;8.25;;;16.20;99.90;;;;;;5032508;28;20517;-74
2022/07/15 03:18:45;;;;;;;10.57;7.85;;;16.20;99.90;;;;;;5033792;28;20100;-74
2022/07/15 03:21:11;;;;;;;10.60;7.75;;;16.20;99.90;;;;;;5035628;28;20026;-74
2022/07/15 03:23:37;;;;;;;11.25;8.25;;;16.20;99.90;;;;;;5039382;28;20163;-74
2022/07/15 03:26:02;;;;;;;8.85;8.02;;;16.20;99.90;;;;;;5039962;28;20106;-74
2022/07/15 03:28:28;;;;;;;10.75;7.78;;;16.20;99.90;;;;;;5039984;28;20029;-75
2022/07/15 03:30:54;;;;;;;8.80;8.00;;;16.20;99.90;;;;;;5038771;28;20057;-74
2022/07/15 03:33:19;;;;;;;11.40;8.80;;;16.20;99.90;;;;;;5039959;28;20029;-74
2022/07/15 03:35:45;;;;;;;11.23;8.30;;;16.20;99.90;;;;;;5038965;28;20409;-74
2022/07/15 03:38:11;;;;;;;10.50;8.65;;;16.30;99.90;;;;;;5040171;28;20475;-74
2022/07/15 03:40:36;;;;;;;10.30;8.85;;;16.30;99.90;;;;;;5038929;28;20029;-75
2022/07/15 03:43:02;;;;;;;9.23;8.23;;;16.40;99.90;;;;;;5038883;28;20026;-74
2022/07/15 03:45:28;;;;;;;10.40;8.02;;;16.40;99.90;;;;;;5040045;28;20029;-74
2022/07/15 03:47:54;;;;;;;10.82;8.38;;;16.40;99.90;;;;;;5040130;28;20124;-74
2022/07/15 03:50:19;;;;;;;11.30;8.90;;;16.40;99.90;;;;;;5039810;28;20557;-74
2022/07/15 03:52:45;;;;;;;13.40;8.93;;;16.40;99.90;;;;;;5038724;28;20021;-74
2022/07/15 03:55:11;;;;;;;11.85;9.18;;;16.40;99.90;;;;;;5038805;28;20075;-74
2022/07/15 03:57:37;;;;;;;10.50;9.18;;;16.40;99.90;;;;;;5038737;28;20029;-74
2022/07/15 04:00:03;;;;;;;11.07;8.70;;;16.40;99.90;;;;;;5039026;28;20475;-74
2022/07/15 04:02:29;;;;;;;9.63;8.70;;;16.50;99.90;;;;;;5040437;28;20041;-75
2022/07/15 04:04:55;;;;;;;10.55;8.10;;;16.50;99.90;;;;;;5039567;28;20493;-75
2022/07/15 04:07:20;;;;;;;11.68;8.60;;;16.40;99.90;;;;;;5039059;28;20396;-74
2022/07/15 04:09:47;;;;;;;13.30;9.80;;;16.40;99.90;;;;;;5039108;28;20049;-74
2022/07/15 04:12:13;;;;;;;9.30;8.20;;;16.40;99.90;;;;;;5039663;28;20475;-74
2022/07/15 04:14:38;;;;;;;10.20;8.88;;;16.40;99.90;;;;;;5039994;28;20030;-74
2022/07/15 04:17:04;;;;;;;9.95;8.57;;;16.40;99.90;;;;;;5040020;28;20030;-74
2022/07/15 04:19:29;;;;;;;11.50;9.35;;;16.40;99.90;;;;;;5039843;28;20080;-74
2022/07/15 04:21:55;;;;;;;11.98;8.98;;;16.50;99.90;;;;;;5038540;28;20030;-68
2022/07/15 04:24:21;;;;;;;11.75;8.60;;;16.50;99.90;;;;;;5039804;28;20041;-68
2022/07/15 04:26:46;;;;;;;11.45;7.90;;;16.60;99.90;;;;;;5039836;28;20029;-68
2022/07/15 04:29:12;;;;;;;9.43;8.40;;;16.70;99.90;;;;;;5039234;28;20033;-73
2022/07/15 04:31:37;;;;;;;11.02;9.30;;;16.80;99.90;;;;;;5039176;28;20032;-73
2022/07/15 04:34:03;;;;;;;12.93;8.88;;;16.80;99.90;;;;;;5034313;28;20473;-74
2022/07/15 04:36:29;;;;;;;11.23;8.45;;;16.80;99.90;;;;;;5035179;28;20390;-73
2022/07/15 04:38:55;;;;;;;10.20;9.05;;;16.80;99.90;;;;;;5036298;28;20029;-72
2022/07/15 04:41:20;;;;;;;12.80;8.32;;;16.80;99.90;;;;;;5036471;28;20061;-75
2022/07/15 04:43:46;;;;;;;9.13;8.25;;;16.80;99.90;;;;;;5035026;28;20030;-75
2022/07/15 04:46:11;;;;;;;11.98;8.57;;;16.80;99.90;;;;;;5036299;28;20033;-73
2022/07/15 04:51:21;;;;;;;10.63;8.18;;;16.90;99.90;;;;;;5036166;28;20047;-73
2022/07/15 04:53:47;;;;;;;12.48;8.77;;;16.90;99.90;;;;;;5036190;28;20454;-75
2022/07/15 04:56:13;;;;;;;9.90;8.50;;;17.00;99.90;;;;;;5036305;28;20037;-74
2022/07/15 04:58:39;;;;;;;11.73;8.20;;;17.00;99.90;;;;;;5035206;28;20440;-74
2022/07/15 05:01:05;;;;;;;11.02;8.57;;;17.10;99.90;;;;;;5035985;28;20041;-74
2022/07/15 05:03:30;;;;;;;9.93;8.82;;;17.30;99.90;;;;;;5036066;28;20136;-73
2022/07/15 05:05:56;;;;;;;12.57;9.18;;;17.30;99.90;;;;;;5035855;28;20421;-74
2022/07/15 05:08:21;;;;;;;9.95;8.30;;;17.40;99.90;;;;;;5035956;28;20083;-74
2022/07/15 05:10:47;;;;;;;9.60;7.78;;;17.50;99.90;;;;;;5034632;28;20030;-74
2022/07/15 05:13:13;;;;;;;11.43;8.02;;;17.50;99.90;;;;;;5034530;28;20402;-75
2022/07/15 05:15:39;;;;;;;10.40;8.15;;;17.60;99.90;;;;;;5034482;28;20033;-74
2022/07/15 05:18:05;;;;;;;8.93;8.10;;;17.70;99.90;;;;;;5035470;28;20032;-75
2022/07/15 05:20:30;;;;;;;10.23;8.25;;;17.70;99.90;;;;;;5035685;28;20025;-74
2022/07/15 05:22:56;;;;;;;8.32;7.40;;;17.80;99.90;;;;;;5035914;28;20160;-59
2022/07/15 05:25:22;;;;;;;13.93;7.28;;;17.80;99.90;;;;;;5035185;28;20366;-59
2022/07/15 05:27:47;;;;;;;9.90;7.13;;;17.90;99.90;;;;;;5034037;28;20029;-59
2022/07/15 05:30:15;;;;;;;9.07;7.10;;;18.00;99.90;;;;;;5035735;28;20116;-59
2022/07/15 05:32:41;;;;;;;8.75;6.68;;;18.00;99.90;;;;;;5035482;28;20024;-59
2022/07/15 05:35:08;;;;;;;8.35;6.57;;;18.00;99.90;;;;;;5035450;28;20021;-59
2022/07/15 05:37:37;;;;;;;8.38;5.55;;;18.10;99.90;;;;;;5035362;28;20037;-59
2022/07/15 05:40:03;;;;;;;8.10;6.38;;;18.10;99.90;;;;;;5035297;28;20052;-59
2022/07/15 05:42:28;;;;;;;6.43;5.20;;;18.00;99.90;;;;;;5035249;28;20092;-59
2022/07/15 05:44:54;;;;;;;9.32;5.68;;;18.00;99.90;;;;;;5034617;28;20030;-59
2022/07/15 05:47:20;;;;;;;8.77;5.15;;;18.10;99.90;;;;;;5035549;28;20473;-59
2022/07/15 05:49:45;;;;;;;8.05;4.88;;;18.10;99.90;;;;;;5035508;28;20032;-59
2022/07/15 05:52:11;;;;;;;5.90;4.80;;;18.10;99.90;;;;;;5035157;28;20036;-64
2022/07/15 05:54:37;;;;;;;6.65;5.13;;;18.10;99.90;;;;;;5035059;28;20029;-70
2022/07/15 05:57:03;;;;;;;6.70;5.22;;;18.20;99.90;;;;;;5035035;28;20021;-62
2022/07/15 05:59:29;;;;;;;6.63;4.30;;;18.20;99.90;;;;;;5033695;28;20057;-64
2022/07/15 06:01:55;;;;;;;6.45;4.78;;;18.30;99.90;;;;;;5034592;28;20131;-63
2022/07/15 06:04:21;;;;;;;7.70;4.65;;;18.30;99.90;;;;;;5034562;28;20408;-63
2022/07/15 06:06:47;;;;;;;6.97;4.20;;;18.30;99.90;;;;;;5033591;28;20628;-62
2022/07/15 06:09:13;;;;;;;6.05;3.38;;;18.40;99.90;;;;;;5034748;28;20029;-65
2022/07/15 06:11:38;;;;;;;7.22;3.38;;;18.40;99.90;;;;;;5034587;28;20118;-61
2022/07/15 06:14:05;;;;;;;4.80;3.55;;;18.50;99.90;;;;;;5034323;28;20037;-65
2022/07/15 06:16:30;;;;;;;5.05;2.70;;;18.60;99.90;;;;;;5034758;28;20025;-67
2022/07/15 06:18:56;;;;;;;6.32;2.92;;;18.90;99.90;;;;;;5034866;28;20025;-63
2022/07/15 06:21:22;;;;;;;3.65;2.58;;;19.20;99.90;;;;;;5034536;28;20021;-64
2022/07/15 06:23:47;;;;;;;6.82;2.90;;;19.60;99.90;;;;;;5034560;28;20488;-63
2022/07/15 06:26:13;;;;;;;4.22;2.45;;;20.00;99.90;;;;;;5034453;28;20496;-63
2022/07/15 06:28:39;;;;;;;3.55;2.13;;;20.40;99.90;;;;;;5034605;28;20112;-63
2022/07/15 06:31:04;;;;;;;8.82;2.83;;;20.60;99.90;;;;;;5033358;28;20464;-65
2022/07/15 06:33:30;;;;;;;4.07;2.00;;;20.60;99.90;;;;;;5034309;28;20030;-65
2022/07/15 06:35:56;;;;;;;2.78;1.85;;;20.60;99.90;;;;;;5032918;28;20116;-64
2022/07/15 06:38:21;;;;;;;3.80;1.77;;;20.70;99.90;;;;;;5033412;28;20144;-64
2022/07/15 06:40:47;;;;;;;3.75;1.85;;;21.00;99.90;;;;;;5034298;28;20029;-65
2022/07/15 06:43:13;;;;;;;5.70;2.20;;;21.10;99.90;;;;;;5033855;28;20078;-65
2022/07/15 06:45:38;;;;;;;6.25;2.00;;;21.20;99.90;;;;;;5034052;28;20029;-65
2022/07/15 06:48:05;;;;;;;7.63;1.88;;;21.20;99.90;;;;;;5033819;28;20033;-66
2022/07/15 06:50:30;;;;;;;3.30;1.75;;;21.20;99.90;;;;;;5032821;28;20036;-64
2022/07/15 06:52:56;;;;;;;6.65;2.13;;;21.10;99.90;;;;;;5033807;28;20112;-64
2022/07/15 06:55:22;;;;;;;4.75;1.65;;;21.20;99.90;;;;;;5033639;28;20099;-63
2022/07/15 06:57:47;;;;;;;4.70;1.98;;;21.30;99.90;;;;;;5033946;28;20034;-63
2022/07/15 07:00:14;;;;;;;4.43;1.50;;;21.40;99.90;;;;;;5034168;28;20021;-63
2022/07/15 07:02:41;;;;;;;6.07;2.03;;;21.60;99.90;;;;;;5034660;28;20049;-63
2022/07/15 07:05:08;;;;;;;4.57;1.60;;;21.70;99.90;;;;;;5033628;28;20370;-63
2022/07/15 07:07:34;;;;;;;2.60;1.65;;;21.70;99.90;;;;;;5033794;28;20032;-63
2022/07/15 07:10:00;;;;;;;3.75;1.38;;;21.90;99.90;;;;;;5033486;28;20041;-63
2022/07/15 07:12:26;;;;;;;2.75;1.50;;;21.90;99.90;;;;;;5033547;28;20025;-63
2022/07/15 07:14:53;;;;;;;4.45;1.38;;;21.90;98.90;;;;;;5032419;28;20030;-63
2022/07/15 07:17:19;;;;;;;4.22;1.50;;;22.00;99.10;;;;;;5034206;28;20409;-65
2022/07/15 07:19:45;;;;;;;3.53;1.27;;;22.30;98.10;;;;;;5033627;28;20026;-63
2022/07/15 07:22:10;;;;;;;3.95;1.17;;;23.50;97.10;;;;;;5034011;28;20030;-63
2022/07/15 07:24:36;;;;;;;5.30;1.63;;;22.30;96.30;;;;;;5033588;28;20069;-63
2022/07/15 07:27:02;;;;;;;2.70;1.00;;;22.40;95.50;;;;;;5033576;28;20088;-64
2022/07/15 07:29:28;;;;;;;2.67;1.15;;;22.50;96.30;;;;;;5033545;28;20033;-62
2022/07/15 07:31:53;;;;;;;4.53;1.08;;;22.60;94.90;;;;;;5033737;28;20026;-63
2022/07/15 07:34:19;;;;;;;3.95;1.42;;;22.60;93.70;;;;;;5033237;28;20093;-61
2022/07/15 07:36:46;;;;;;;3.60;1.08;;;22.70;93.10;;;;;;5033515;28;20029;-63
2022/07/15 07:39:12;;;;;;;1.63;0.90;;;22.80;92.80;;;;;;5032228;28;20025;-73
2022/07/15 07:41:38;;;;;;;2.60;1.08;;;22.50;91.50;;;;;;5033823;28;20096;-72
2022/07/15 07:44:05;;;;;;;4.20;1.42;;;22.30;94.00;;;;;;5033423;28;20120;-72
2022/07/15 07:46:31;;;;;;;4.50;1.48;;;22.20;92.60;;;;;;5032060;28;20084;-73
2022/07/15 07:48:57;;;;;;;4.43;1.13;;;22.30;92.10;;;;;;5032077;28;20029;-72
2022/07/15 07:51:23;;;;;;;2.35;1.00;;;22.70;93.10;;;;;;5033476;28;20026;-72
2022/07/15 07:53:49;;;;;;;2.15;0.80;;;22.80;90.60;;;;;;5032124;28;20079;-72
2022/07/15 07:56:14;;;;;;;2.58;0.90;;;22.80;88.10;;;;;;5033389;28;20030;-73
2022/07/15 07:58:40;;;;;;;4.93;0.90;;;23.00;87.70;;;;;;5033517;28;20029;-73
2022/07/15 08:01:06;;;;;;;1.20;0.80;;;23.20;89.20;;;;;;5033040;28;20462;-73
2022/07/15 08:03:32;;;;;;;4.72;0.80;;;23.50;87.30;;;;;;5032086;28;20103;-72
2022/07/15 08:05:58;;;;;;;3.38;0.90;;;23.60;83.80;;;;;;5032840;28;20033;-72
2022/07/15 08:08:24;;;;;;;2.88;1.00;;;23.60;83.40;;;;;;5036484;28;20504;-76
2022/07/15 08:10:56;;;;;;;5.20;1.23;;;23.80;82.20;;;;;;5035597;28;20049;-76
2022/07/15 08:13:24;;;;;;;4.45;1.10;;;23.70;81.50;;;;;;5037219;28;20018;-76
2022/07/15 08:15:53;;;;;;;2.55;0.70;;;24.20;82.60;;;;;;5036944;28;20033;-76
2022/07/15 08:18:19;;;;;;;6.35;1.05;;;25.10;77.90;;;;;;5036756;28;20030;-76
2022/07/15 08:20:44;;;;;;;3.05;0.80;;;25.40;73.70;;;;;;5036824;28;20433;-76
2022/07/15 08:23:10;;;;;;;2.53;0.98;;;25.70;72.90;;;;;;5037034;28;20156;-76
2022/07/15 08:25:37;;;;;;;2.38;0.90;;;25.70;71.10;;;;;;5035660;28;20128;-78
2022/07/15 08:28:04;;;;;;;6.25;0.95;;;25.50;70.40;;;;;;5036774;28;20032;-77
2022/07/15 08:30:32;;;;;;;3.05;0.73;;;25.50;69.70;;;;;;5036706;28;20021;-77
2022/07/15 08:32:58;;;;;;;2.63;1.05;;;25.80;69.10;;;;;;5036647;28;20029;-77
2022/07/15 08:35:25;;;;;;;6.53;0.75;;;26.20;64.30;;;;;;5037033;28;20112;-78
2022/07/15 08:37:51;;;;;;;4.63;0.70;;;26.10;63.70;;;;;;5035202;28;20496;-76
2022/07/15 08:40:16;;;;;;;2.72;0.82;;;25.80;62.80;;;;;;5035354;28;20025;-77
2022/07/15 08:42:45;;;;;;;0.77;0.70;;;26.20;62.40;;;;;;5035122;28;20025;-77
2022/07/15 08:45:12;;;;;;;2.03;0.60;;;26.50;62.70;;;;;;5036406;28;20061;-78
2022/07/15 08:47:40;;;;;;;2.47;0.68;;;26.70;61.00;;;;;;5035078;28;20432;-73
2022/07/15 08:50:08;;;;;;;3.83;0.67;;;26.30;60.40;;;;;;5034787;28;20030;-74
2022/07/15 08:52:36;;;;;;;1.80;0.80;;;26.60;60.20;;;;;;5036508;28;20033;-74
2022/07/15 08:55:02;;;;;;;5.35;0.77;;;26.60;60.30;;;;;;5036269;28;20029;-73
2022/07/15 08:57:29;;;;;;;1.42;0.77;;;27.00;60.00;;;;;;5036114;28;20029;-75
2022/07/15 08:59:55;;;;;;;8.30;1.00;;;27.80;58.50;;;;;;5034587;28;20052;-76
2022/07/15 09:02:22;;;;;;;1.50;0.60;;;28.00;56.40;;;;;;5035781;28;20096;-74
2022/07/15 09:05:21;;;;;;;2.60;0.98;;;28.00;57.60;;;;;;5034566;28;20485;-75
2022/07/15 09:08:00;;;;;;;2.20;0.98;;;27.70;57.50;;;;;;5034613;28;20029;-75
2022/07/15 09:10:44;;;;;;;3.97;0.90;;;27.40;56.60;;;;;;5035121;28;20087;-74
2022/07/15 09:13:26;;;;;;;3.35;0.70;;;27.60;54.50;;;;;;5036074;28;20429;-75
2022/07/15 09:15:54;;;;;;;1.98;0.68;;;27.50;55.40;;;;;;5035675;28;20037;-74
2022/07/15 09:18:22;;;;;;;4.88;0.88;;;27.70;54.30;;;;;;5034865;28;20017;-75
2022/07/15 09:20:49;;;;;;;3.47;0.47;;;27.90;53.10;;;;;;5034468;28;20049;-75
2022/07/15 09:23:38;;;;;;;4.05;1.00;;;28.10;52.80;;;;;;5035501;28;20025;-75
2022/07/15 09:26:26;;;;;;;5.40;1.38;;;27.70;50.40;;;;;;5035165;28;20136;-75
2022/07/15 09:28:53;;;;;;;2.60;0.70;;;27.00;52.00;;;;;;5034308;28;20436;-76
2022/07/15 09:34:17;;;;;;;4.30;0.60;;;26.80;53.00;;;;;;5035613;28;20036;-79
2022/07/15 09:36:50;;;;;;;1.00;0.47;;;27.40;51.80;;;;;;5035539;28;20116;-76
2022/07/15 09:39:17;;;;;;;1.90;0.60;;;27.70;50.10;;;;;;5035432;28;20500;-78
2022/07/15 09:41:44;;;;;;;1.95;0.68;;;27.80;50.20;;;;;;5035039;28;20028;-76
2022/07/15 09:44:23;;;;;;;6.10;0.80;;;27.50;48.90;;;;;;5035299;28;20029;-77
2022/07/15 09:47:01;;;;;;;1.58;0.38;;;27.80;49.60;;;;;;5035011;28;20474;-76
2022/07/15 09:49:26;;;;;;;3.47;0.53;;;27.50;49.30;;;;;;5035280;28;20028;-77
2022/07/15 09:51:58;;;;;;;1.35;0.68;;;27.50;50.00;;;;;;5034779;28;20374;-79
2022/07/15 09:54:30;;;;;;;3.30;0.80;;;27.70;49.00;;;;;;5034960;28;20031;-76
2022/07/15 09:56:57;;;;;;;6.07;1.10;;;28.00;49.10;;;;;;5033999;28;20061;-75
2022/07/15 09:59:24;;;;;;;2.90;0.70;;;28.00;48.30;;;;;;5033735;28;20033;-74
2022/07/15 10:01:50;;;;;;;2.58;0.50;;;28.30;47.70;;;;;;5034810;28;20060;-76
2022/07/15 10:04:19;;;;;;;2.13;0.80;;;28.00;47.40;;;;;;5034602;28;20029;-77
2022/07/15 10:06:47;;;;;;;6.43;0.82;;;28.10;47.80;;;;;;5034786;28;20029;-76
2022/07/15 10:09:13;;;;;;;4.07;1.00;;;27.90;48.70;;;;;;5034499;28;20393;-76
2022/07/15 10:11:48;;;;;;;5.50;0.80;;;27.90;48.10;;;;;;5032829;28;20030;-79
2022/07/15 10:14:34;;;;;;;4.05;0.93;;;28.10;49.00;;;;;;5045284;28;20029;-76
2022/07/15 10:17:03;;;;;;;5.70;1.80;;;28.10;48.90;;;;;;5034166;28;20081;-76
2022/07/15 10:20:16;;;;;;;3.80;0.93;;;27.70;48.70;;;;;;5049620;28;20036;-77
2022/07/15 10:23:06;;;;;;;3.40;1.10;;;28.20;48.50;;;;;;5052077;28;20033;-77
2022/07/15 10:26:02;;;;;;;5.35;1.05;;;28.30;47.40;;;;;;5054284;28;20134;-78
2022/07/15 10:28:43;;;;;;;1.90;0.77;;;28.60;48.30;;;;;;5054070;28;20029;-77
2022/07/15 10:31:27;;;;;;;2.35;0.90;;;28.20;48.90;;;;;;5043167;28;20385;-78
2022/07/15 10:34:04;;;;;;;2.22;1.00;;;28.00;49.40;;;;;;5054050;28;20025;-77
2022/07/15 10:36:40;;;;;;;6.20;0.90;;;28.10;49.00;;;;;;5054240;28;20029;-72
2022/07/15 10:39:08;;;;;;;3.78;1.00;;;28.00;48.10;;;;;;5054105;28;20025;-71
2022/07/15 10:42:03;;;;;;;2.22;1.00;;;27.50;49.80;;;;;;5054066;28;20029;-70
2022/07/15 10:44:32;;;;;;;1.08;0.93;;;27.00;50.80;;;;;;5052603;28;20120;-69
2022/07/15 10:47:30;;;;;;;3.17;1.13;;;27.00;51.10;;;;;;5052878;28;20056;-69
2022/07/15 10:49:56;;;;;;;2.03;1.42;;;27.30;51.70;;;;;;5019992;28;20056;-69
2022/07/15 10:52:28;;;;;;;3.95;1.00;;;27.60;49.60;;;;;;5053955;28;20056;-70
2022/07/15 10:54:57;;;;;;;1.58;0.80;;;27.80;49.80;;;;;;5053983;28;20052;-72
2022/07/15 10:57:53;;;;;;;2.42;1.00;;;28.20;49.60;;;;;;5053938;28;20032;-71
2022/07/15 11:00:24;;;;;;;2.03;0.98;;;27.90;49.90;;;;;;5045991;28;20082;-70
2022/07/15 11:03:14;;;;;;;2.78;0.95;;;27.90;50.50;;;;;;5054008;28;20056;-73
2022/07/15 11:05:56;;;;;;;5.38;1.30;;;27.60;50.30;;;;;;5053023;28;20037;-74
2022/07/15 11:08:33;;;;;;;2.80;1.00;;;27.80;50.20;;;;;;5053957;28;20490;-73
2022/07/15 11:11:14;;;;;;;6.63;1.70;;;28.60;49.00;;;;;;5053739;28;20025;-73
2022/07/15 11:13:45;;;;;;;1.95;1.00;;;28.50;49.30;;;;;;5052386;28;20493;-73
2022/07/15 11:16:12;;;;;;;1.85;0.98;;;28.20;49.20;;;;;;5054013;28;20029;-73
2022/07/15 11:18:49;;;;;;;4.05;1.42;;;28.50;47.60;;;;;;5053891;28;20029;-73
2022/07/15 11:21:15;;;;;;;3.47;1.27;;;28.30;46.90;;;;;;5053597;28;20025;-73
2022/07/15 11:23:45;;;;;;;1.60;1.05;;;28.10;47.50;;;;;;5051998;28;20033;-74
2022/07/15 11:26:11;;;;;;;2.42;1.30;;;27.40;46.90;;;;;;5053604;28;20041;-73
2022/07/15 11:28:37;;;;;;;4.38;1.15;;;26.90;48.60;;;;;;5053589;28;20025;-73
2022/07/15 11:31:03;;;;;;;2.97;1.48;;;26.70;49.20;;;;;;5052325;28;20413;-74
2022/07/15 11:33:30;;;;;;;1.70;1.05;;;27.20;50.10;;;;;;5052278;28;20021;-73
2022/07/15 11:35:55;;;;;;;5.45;1.52;;;27.30;48.20;;;;;;5053193;28;20040;-74
2022/07/15 11:38:27;;;;;;;5.60;1.02;;;27.20;50.10;;;;;;5052191;28;20021;-73
2022/07/15 11:46:30;;;;;;;1.02;0.93;;;27.40;47.00;;;;;;5057139;28;20393;-74
2022/07/15 11:48:58;;;;;;;2.42;1.10;;;27.30;48.00;;;;;;5057589;28;20017;-73
2022/07/15 11:51:27;;;;;;;1.98;0.98;;;27.20;48.20;;;;;;5056032;28;20119;-74
2022/07/15 11:53:53;;;;;;;4.22;1.83;;;27.40;48.50;;;;;;5056004;28;20457;-73
2022/07/15 11:56:19;;;;;;;2.60;1.10;;;28.20;47.70;;;;;;5055943;28;20082;-74
2022/07/15 11:58:49;;;;;;;5.28;1.00;;;28.50;48.30;;;;;;5055546;28;20143;-73
2022/07/15 12:01:22;;;;;;;2.88;1.00;;;28.90;46.10;;;;;;5055555;28;20057;-74
2022/07/15 12:03:53;;;;;;;3.17;1.10;;;29.10;45.20;;;;;;5055946;28;20021;-74
2022/07/15 12:06:22;;;;;;;5.20;1.17;;;29.20;44.60;;;;;;5057214;28;20066;-73
2022/07/15 12:08:50;;;;;;;1.80;1.33;;;29.40;45.20;;;;;;5057099;28;20025;-73
2022/07/15 12:11:22;;;;;;;5.70;1.37;;;29.30;45.10;;;;;;5057020;28;20025;-75
2022/07/15 12:13:52;;;;;;;1.80;0.85;;;28.60;45.50;;;;;;5057174;28;20259;-74
2022/07/15 12:16:25;;;;;;;2.28;1.08;;;28.40;46.60;;;;;;5055655;28;20033;-74
2022/07/15 12:18:53;;;;;;;1.73;0.98;;;28.50;47.40;;;;;;5056949;28;20075;-75
2022/07/15 12:21:19;;;;;;;2.40;1.15;;;28.60;47.30;;;;;;5055684;28;20116;-74
2022/07/15 12:24:01;;;;;;;2.30;1.08;;;28.20;47.00;;;;;;5056719;28;20130;-74
2022/07/15 12:26:27;;;;;;;3.03;1.15;;;28.00;47.40;;;;;;5055270;28;20036;-74
2022/07/15 12:28:58;;;;;;;3.78;1.17;;;27.90;47.70;;;;;;5056647;28;20025;-75
2022/07/15 12:31:30;;;;;;;1.85;1.20;;;27.70;47.20;;;;;;5056305;28;20197;-75
2022/07/15 12:33:55;;;;;;;6.55;1.00;;;27.70;47.30;;;;;;5056724;28;20032;-74
2022/07/15 12:36:26;;;;;;;5.07;1.00;;;27.80;47.10;;;;;;5055280;28;20397;-74
2022/07/15 12:39:22;;;;;;;2.10;1.10;;;28.30;47.10;;;;;;5056682;28;20108;-74
2022/07/15 12:42:02;;;;;;;2.95;1.00;;;28.50;47.20;;;;;;5042416;28;20037;-75
2022/07/15 12:44:28;;;;;;;4.43;1.05;;;29.20;44.90;;;;;;5054664;28;20025;-75
2022/07/15 12:47:03;;;;;;;1.70;1.10;;;30.20;43.50;;;;;;5056757;28;20068;-75
2022/07/15 12:49:44;;;;;;;1.33;1.10;;;29.60;42.90;;;;;;5055067;28;20025;-75
2022/07/15 12:52:16;;;;;;;4.28;1.45;;;29.30;43.90;;;;;;5055208;28;20492;-75
2022/07/15 12:54:41;;;;;;;1.35;1.00;;;28.90;43.80;;;;;;5054032;28;20029;-75
2022/07/15 12:57:19;;;;;;;2.63;1.00;;;28.80;44.30;;;;;;5055843;28;20036;-75
2022/07/15 12:59:52;;;;;;;3.78;1.17;;;28.40;44.40;;;;;;5056205;28;20033;-75
2022/07/15 13:02:18;;;;;;;3.58;1.10;;;28.20;45.20;;;;;;5054577;28;20045;-75